Kenbridge, Virginia
Current Conditions -  °F | °C
As of 9:15 PM on Thursday 20 Nov 2014 (Local Time) from KW31 Reporting Station
Clear Clear  
Wind Chill: 43°   Ceiling: Unl
Heat Index: 43°   Visibility: 10mi
Dew Point: 23°   Wind: 3mph
Humidity: 45%   Direction: 270°W
Pressure: 30.06"   Gusts: NA
Location:  36.96°N, 78.13°W
Report Text: KW31 210215Z AUTO 27003KT 10SM CLR 06/M05 A3006 RMK AO1 T00621050
Loading
Personal Weather Stations






























Interactive Weather Map New forecast layout! Learn more

10-Day Weather Forecast

Advertisements
Track Severe Weather on mobile